createdAt,value
2023-08-20T00:02:33.127Z,88.50
2023-08-20T00:05:06.985Z,88.10
2023-08-20T00:07:38.401Z,88.00
2023-08-20T00:10:09.861Z,87.70
2023-08-20T00:12:40.585Z,87.50
2023-08-20T00:15:11.758Z,84.10
2023-08-20T00:17:44.784Z,85.40
2023-08-20T00:20:21.751Z,84.30
2023-08-20T00:22:52.944Z,84.10
2023-08-20T00:25:25.939Z,84.40
2023-08-20T00:27:56.305Z,82.90
2023-08-20T00:30:27.099Z,82.40
2023-08-20T00:32:58.771Z,82.00
2023-08-20T00:35:29.656Z,81.10
2023-08-20T00:38:00.555Z,79.90
2023-08-20T00:40:31.560Z,79.60
2023-08-20T00:43:03.253Z,77.70
2023-08-20T00:45:36.459Z,76.60
2023-08-20T00:48:09.054Z,78.10
2023-08-20T00:50:39.878Z,77.80
2023-08-20T00:53:12.192Z,75.70
2023-08-20T00:55:44.614Z,77.10
2023-08-20T00:58:15.773Z,77.50
2023-08-20T01:00:46.474Z,78.40
2023-08-20T01:03:17.634Z,77.30
2023-08-20T01:05:57.172Z,75.80
2023-08-20T01:08:41.698Z,76.00
2023-08-20T01:11:21.681Z,77.00
2023-08-20T01:13:52.385Z,76.20
2023-08-20T01:16:23.126Z,74.70
2023-08-20T01:18:54.496Z,77.00
2023-08-20T01:21:45.125Z,76.70
2023-08-20T01:24:26.820Z,77.40
2023-08-20T01:27:36.103Z,76.60
2023-08-20T01:30:07.830Z,74.20
2023-08-20T01:32:40.221Z,74.80
2023-08-20T01:35:16.331Z,75.30
2023-08-20T01:37:48.888Z,74.10
2023-08-20T01:40:21.081Z,74.50
2023-08-20T01:42:51.830Z,74.80
2023-08-20T01:45:22.834Z,74.20
2023-08-20T01:47:53.683Z,74.30
2023-08-20T01:50:24.606Z,74.50
2023-08-20T01:52:56.291Z,73.40
2023-08-20T01:55:28.013Z,74.30
2023-08-20T01:58:00.755Z,73.50
2023-08-20T02:00:32.109Z,74.20
2023-08-20T02:03:04.749Z,74.80
2023-08-20T02:05:35.519Z,74.90
2023-08-20T02:08:06.708Z,71.60
2023-08-20T02:10:39.420Z,73.30
2023-08-20T02:13:10.464Z,72.60
2023-08-20T02:15:42.364Z,74.50
2023-08-20T02:18:13.095Z,75.10
2023-08-20T02:20:46.853Z,75.40
2023-08-20T02:23:18.587Z,74.80
2023-08-20T02:25:51.830Z,73.50
2023-08-20T02:28:22.593Z,75.40
2023-08-20T02:30:55.059Z,76.40
2023-08-20T02:33:27.484Z,75.20
2023-08-20T02:35:59.107Z,75.30
2023-08-20T02:38:34.649Z,76.10
2023-08-20T02:41:08.566Z,76.70
2023-08-20T02:43:40.416Z,76.30
2023-08-20T02:46:11.107Z,75.30
2023-08-20T02:48:42.841Z,75.20
2023-08-20T02:51:14.789Z,73.80
2023-08-20T02:53:45.465Z,74.00
2023-08-20T02:56:17.108Z,74.20
2023-08-20T02:58:48.984Z,74.20
2023-08-20T03:01:26.901Z,73.90
2023-08-20T03:03:58.799Z,74.50
2023-08-20T03:06:31.057Z,75.60
2023-08-20T03:09:01.727Z,74.10
2023-08-20T03:11:34.115Z,74.60
2023-08-20T03:14:06.372Z,73.80
2023-08-20T03:16:37.376Z,72.00
2023-08-20T03:19:09.016Z,72.10
2023-08-20T03:21:39.807Z,72.80
2023-08-20T03:24:11.592Z,72.00
2023-08-20T03:26:43.194Z,73.40
2023-08-20T03:29:14.013Z,74.00
2023-08-20T03:31:46.346Z,74.40
2023-08-20T03:34:16.979Z,74.70
2023-08-20T03:36:47.697Z,75.80
2023-08-20T03:39:19.282Z,74.40
2023-08-20T03:41:50.402Z,74.90
2023-08-20T03:44:21.100Z,75.60
2023-08-20T03:46:51.889Z,74.60
2023-08-20T03:49:22.715Z,74.60
2023-08-20T03:51:53.417Z,73.80
2023-08-20T03:54:24.424Z,73.80
2023-08-20T03:56:56.921Z,73.80
2023-08-20T03:59:28.814Z,74.20
2023-08-20T04:01:59.769Z,73.10
2023-08-20T04:04:32.157Z,73.60
2023-08-20T04:07:03.032Z,73.50
2023-08-20T04:09:36.117Z,73.50
2023-08-20T04:12:08.425Z,74.40
2023-08-20T04:14:40.431Z,75.00
2023-08-20T04:17:11.454Z,74.50
2023-08-20T04:19:43.447Z,74.10
2023-08-20T04:22:14.763Z,73.80
2023-08-20T04:24:45.844Z,75.30
2023-08-20T04:27:16.960Z,74.40
2023-08-20T04:29:47.928Z,74.20
2023-08-20T04:32:22.032Z,74.30
2023-08-20T04:34:55.218Z,74.50
2023-08-20T04:37:27.097Z,75.30
2023-08-20T04:39:58.264Z,75.60
2023-08-20T04:42:29.008Z,75.10
2023-08-20T04:45:00.481Z,74.40
2023-08-20T04:47:31.907Z,75.10
2023-08-20T04:50:03.649Z,75.10
2023-08-20T04:52:34.435Z,74.80
2023-08-20T04:55:08.046Z,75.10
2023-08-20T04:57:38.904Z,74.70
2023-08-20T05:00:10.378Z,76.40
2023-08-20T05:02:42.553Z,75.20
2023-08-20T05:05:15.365Z,75.70
2023-08-20T05:07:47.530Z,75.20
2023-08-20T05:10:18.232Z,75.10
2023-08-20T05:12:50.173Z,75.50
2023-08-20T05:15:21.365Z,75.60
2023-08-20T05:17:52.353Z,75.10
2023-08-20T05:20:23.251Z,75.50
2023-08-20T05:22:55.147Z,75.60
2023-08-20T05:25:26.382Z,75.60
2023-08-20T05:27:58.544Z,75.90
2023-08-20T05:30:29.263Z,76.50
2023-08-20T05:33:01.346Z,76.50
2023-08-20T05:35:38.191Z,77.00
2023-08-20T05:38:13.149Z,77.40
2023-08-20T05:40:45.371Z,77.10
2023-08-20T05:43:16.430Z,76.40
2023-08-20T05:45:47.833Z,76.00
2023-08-20T05:48:19.038Z,76.60
2023-08-20T05:50:49.814Z,77.80
2023-08-20T05:53:22.448Z,77.70
2023-08-20T05:55:54.848Z,77.70
2023-08-20T05:58:27.191Z,78.30
2023-08-20T06:00:58.049Z,78.20
2023-08-20T06:03:30.427Z,79.30
2023-08-20T06:06:08.140Z,79.10
2023-08-20T06:08:43.741Z,79.00
2023-08-20T06:11:20.288Z,79.00
2023-08-20T06:13:52.158Z,79.10
2023-08-20T06:16:25.725Z,79.70
2023-08-20T06:18:57.247Z,79.80
2023-08-20T06:21:28.829Z,79.90
2023-08-20T06:24:00.883Z,79.60
2023-08-20T06:26:31.717Z,80.00
2023-08-20T06:29:03.050Z,80.70
2023-08-20T06:31:33.800Z,81.10
2023-08-20T06:34:05.809Z,81.50
2023-08-20T06:36:38.438Z,81.40
2023-08-20T06:39:11.707Z,81.50
2023-08-20T06:41:42.393Z,81.10
2023-08-20T06:44:13.883Z,81.30
2023-08-20T06:46:44.656Z,81.60
2023-08-20T06:49:15.964Z,82.10
2023-08-20T06:51:46.661Z,82.30
2023-08-20T06:54:20.316Z,82.40
2023-08-20T06:56:51.202Z,82.60
2023-08-20T06:59:22.950Z,82.60
2023-08-20T07:01:54.660Z,82.50
2023-08-20T07:04:27.072Z,83.70
2023-08-20T07:06:57.780Z,82.90
2023-08-20T07:09:29.445Z,83.30
2023-08-20T07:12:00.269Z,83.60
2023-08-20T07:14:31.071Z,84.10
2023-08-20T07:17:04.341Z,84.20
2023-08-20T07:19:35.128Z,84.60
2023-08-20T07:22:06.817Z,85.00
2023-08-20T07:24:39.726Z,85.00
2023-08-20T07:27:15.420Z,85.20
2023-08-20T07:29:46.287Z,85.40
2023-08-20T07:32:18.373Z,85.60
2023-08-20T07:34:49.812Z,85.70
2023-08-20T07:37:21.856Z,85.90
2023-08-20T07:39:54.449Z,85.80
2023-08-20T07:42:26.888Z,86.20
2023-08-20T07:44:59.879Z,86.50
2023-08-20T07:47:33.635Z,87.10
2023-08-20T07:50:05.063Z,86.90
2023-08-20T07:52:37.639Z,87.30
2023-08-20T07:55:08.672Z,87.80
2023-08-20T07:57:40.354Z,88.00
2023-08-20T08:00:11.647Z,88.20
2023-08-20T08:02:42.537Z,88.50
2023-08-20T08:05:13.782Z,88.90
2023-08-20T08:07:46.131Z,89.10
2023-08-20T08:10:17.873Z,89.60
2023-08-20T08:12:50.176Z,89.80
2023-08-20T08:15:21.542Z,90.00
2023-08-20T08:17:52.889Z,90.00
2023-08-20T08:20:23.832Z,90.10
2023-08-20T08:22:55.572Z,90.20
2023-08-20T08:25:26.390Z,90.30
2023-08-20T08:28:00.441Z,90.50
2023-08-20T08:30:32.860Z,90.50
2023-08-20T08:33:04.337Z,90.80
2023-08-20T08:35:37.130Z,90.80
2023-08-20T08:38:11.435Z,90.90
2023-08-20T08:40:46.263Z,91.20
2023-08-20T08:43:19.808Z,91.20
2023-08-20T08:45:54.085Z,91.30
2023-08-20T08:48:26.764Z,91.20
2023-08-20T08:51:00.197Z,91.30
2023-08-20T08:53:31.657Z,91.30
2023-08-20T08:56:02.777Z,91.50
2023-08-20T08:58:33.635Z,91.60
2023-08-20T09:01:05.642Z,91.60
2023-08-20T09:03:36.804Z,91.60
2023-08-20T09:06:13.444Z,91.80
2023-08-20T09:08:45.124Z,92.00
2023-08-20T09:11:17.655Z,92.00
2023-08-20T09:13:50.585Z,92.10
2023-08-20T09:16:22.632Z,92.20
2023-08-20T09:18:54.545Z,92.20
2023-08-20T09:21:32.784Z,92.30
2023-08-20T09:24:07.064Z,92.30
2023-08-20T09:26:38.166Z,92.30
2023-08-20T09:29:08.932Z,92.60
2023-08-20T09:31:43.621Z,92.50
2023-08-20T09:34:17.348Z,92.70
2023-08-20T09:36:48.368Z,92.90
2023-08-20T09:39:20.951Z,93.00
2023-08-20T09:41:53.269Z,93.30
2023-08-20T09:44:26.583Z,93.40
2023-08-20T09:46:58.110Z,93.20
2023-08-20T09:49:34.608Z,93.20
2023-08-20T09:52:14.812Z,93.10
2023-08-20T09:55:13.942Z,93.10
2023-08-20T09:57:46.703Z,93.30
2023-08-20T10:00:19.329Z,93.50
2023-08-20T10:02:51.555Z,93.70
2023-08-20T10:05:25.312Z,93.60
2023-08-20T10:07:57.428Z,93.60
2023-08-20T10:10:29.672Z,93.50
2023-08-20T10:13:02.221Z,93.70
2023-08-20T10:15:37.297Z,93.60
2023-08-20T10:18:11.295Z,93.60
2023-08-20T10:20:46.121Z,93.70
2023-08-20T10:23:18.562Z,93.70
2023-08-20T10:25:50.945Z,93.60
2023-08-20T10:28:28.489Z,93.90
2023-08-20T10:31:12.453Z,94.00
2023-08-20T10:33:54.384Z,94.10
2023-08-20T10:36:33.628Z,94.20
2023-08-20T10:39:08.838Z,94.30
2023-08-20T10:41:40.396Z,94.40
2023-08-20T10:44:12.177Z,94.40
2023-08-20T10:46:59.040Z,94.10
2023-08-20T10:49:31.764Z,94.20
2023-08-20T10:52:07.808Z,94.30
2023-08-20T10:54:39.932Z,94.40
2023-08-20T10:57:11.115Z,94.30
2023-08-20T10:59:44.776Z,94.00
2023-08-20T11:02:20.879Z,93.90
2023-08-20T11:04:52.912Z,94.00
2023-08-20T11:07:26.233Z,94.20
2023-08-20T11:09:58.427Z,94.40
2023-08-20T11:12:30.379Z,94.40
2023-08-20T11:15:07.206Z,94.30
2023-08-20T11:17:38.128Z,94.60
2023-08-20T11:20:12.414Z,94.90
2023-08-20T11:22:45.616Z,94.70
2023-08-20T11:25:17.070Z,94.70
2023-08-20T11:27:48.296Z,94.80
2023-08-20T11:30:20.914Z,94.60
2023-08-20T11:32:56.755Z,95.10
2023-08-20T11:35:27.833Z,94.90
2023-08-20T11:38:01.493Z,94.80
2023-08-20T11:40:32.936Z,94.80
2023-08-20T11:43:03.942Z,95.20
2023-08-20T11:45:36.687Z,95.20
2023-08-20T11:48:09.375Z,95.20
2023-08-20T11:50:40.878Z,95.20
2023-08-20T11:53:13.897Z,95.00
2023-08-20T11:55:46.794Z,94.90
2023-08-20T11:58:18.980Z,95.30
2023-08-20T12:00:54.433Z,95.30
2023-08-20T12:03:25.366Z,95.20
2023-08-20T12:05:57.467Z,95.20
2023-08-20T12:08:42.006Z,95.10
2023-08-20T12:11:13.320Z,95.20
2023-08-20T12:13:45.519Z,95.40
2023-08-20T12:16:17.627Z,95.50
2023-08-20T12:18:51.631Z,95.20
2023-08-20T12:21:23.699Z,95.30
2023-08-20T12:23:54.469Z,94.90
2023-08-20T12:26:27.186Z,95.10
2023-08-20T12:28:59.352Z,95.60
2023-08-20T12:31:30.305Z,95.60
2023-08-20T12:34:02.237Z,95.30
2023-08-20T12:36:34.746Z,95.10
2023-08-20T12:39:07.939Z,95.10
2023-08-20T12:41:40.712Z,96.10
2023-08-20T12:44:11.500Z,95.60
2023-08-20T12:46:42.253Z,95.50
2023-08-20T12:49:14.502Z,95.80
2023-08-20T12:51:46.443Z,95.50
2023-08-20T12:54:17.255Z,95.40
2023-08-20T12:56:48.045Z,95.30
2023-08-20T12:59:19.278Z,95.50
2023-08-20T13:01:50.504Z,95.30
2023-08-20T13:04:22.672Z,95.10
2023-08-20T13:06:54.764Z,95.10
2023-08-20T13:09:27.164Z,95.00
2023-08-20T13:12:00.511Z,95.50
2023-08-20T13:14:32.584Z,95.50
2023-08-20T13:17:04.727Z,96.10
2023-08-20T13:19:35.483Z,95.70
2023-08-20T13:22:07.780Z,95.80
2023-08-20T13:24:40.664Z,95.70
2023-08-20T13:27:12.592Z,95.80
2023-08-20T13:29:46.337Z,95.90
2023-08-20T13:32:18.311Z,95.90
2023-08-20T13:34:50.030Z,95.90
2023-08-20T13:37:20.978Z,96.00
2023-08-20T13:39:51.872Z,96.00
2023-08-20T13:42:23.100Z,96.40
2023-08-20T13:44:56.249Z,96.30
2023-08-20T13:47:28.331Z,96.20
2023-08-20T13:49:59.445Z,96.30
2023-08-20T13:52:30.275Z,96.40
2023-08-20T13:55:02.195Z,96.60
2023-08-20T13:57:33.021Z,96.70
2023-08-20T14:00:05.600Z,96.30
2023-08-20T14:02:37.495Z,96.10
2023-08-20T14:05:09.190Z,96.50
2023-08-20T14:07:42.074Z,96.30
2023-08-20T14:10:14.274Z,95.90
2023-08-20T14:12:46.236Z,96.20
2023-08-20T14:15:17.021Z,96.10
2023-08-20T14:17:49.739Z,96.40
2023-08-20T14:20:21.525Z,96.20
2023-08-20T14:22:54.456Z,95.60
2023-08-20T14:25:25.418Z,95.60
2023-08-20T14:27:57.304Z,95.60
2023-08-20T14:30:29.395Z,95.90
2023-08-20T14:33:00.139Z,96.00
2023-08-20T14:35:32.871Z,95.80
2023-08-20T14:38:05.092Z,96.10
2023-08-20T14:40:38.453Z,95.50
2023-08-20T14:43:12.621Z,95.30
2023-08-20T14:45:45.556Z,95.40
2023-08-20T14:48:18.202Z,95.90
2023-08-20T14:50:49.838Z,95.50
2023-08-20T14:53:21.789Z,95.90
2023-08-20T14:55:54.214Z,96.00
2023-08-20T14:58:24.973Z,95.60
2023-08-20T15:00:56.674Z,95.70
2023-08-20T15:03:29.654Z,95.50
2023-08-20T15:06:01.541Z,95.50
2023-08-20T15:08:32.128Z,95.30
2023-08-20T15:11:06.188Z,95.20
2023-08-20T15:13:36.960Z,96.10
2023-08-20T15:16:07.920Z,95.70
2023-08-20T15:18:40.029Z,95.30
2023-08-20T15:21:12.639Z,95.30
2023-08-20T15:23:43.612Z,95.70
2023-08-20T15:26:14.503Z,95.30
2023-08-20T15:28:45.588Z,95.50
2023-08-20T15:31:15.960Z,95.20
2023-08-20T15:33:46.787Z,95.60
2023-08-20T15:36:17.649Z,95.50
2023-08-20T15:38:50.471Z,95.40
2023-08-20T15:41:22.402Z,95.30
2023-08-20T15:43:53.226Z,95.10
2023-08-20T15:46:24.017Z,95.00
2023-08-20T15:48:57.286Z,95.70
2023-08-20T15:51:28.030Z,95.60
2023-08-20T15:53:58.509Z,95.20
2023-08-20T15:56:29.373Z,94.80
2023-08-20T15:59:00.022Z,94.80
2023-08-20T16:01:31.014Z,95.50
2023-08-20T16:04:01.834Z,95.40
2023-08-20T16:06:32.293Z,95.30
2023-08-20T16:09:02.933Z,95.70
2023-08-20T16:11:33.805Z,96.10
2023-08-20T16:14:04.841Z,96.30
2023-08-20T16:16:36.572Z,96.30
2023-08-20T16:19:08.089Z,96.40
2023-08-20T16:21:38.400Z,96.40
2023-08-20T16:24:08.903Z,97.30
2023-08-20T16:26:39.189Z,97.40
2023-08-20T16:29:09.535Z,97.30
2023-08-20T16:31:39.997Z,97.90
2023-08-20T16:34:10.350Z,97.90
2023-08-20T16:36:40.639Z,97.60
2023-08-20T16:39:11.044Z,97.20
2023-08-20T16:41:41.892Z,97.50
2023-08-20T16:44:12.866Z,97.40
2023-08-20T16:46:43.213Z,97.20
2023-08-20T16:49:13.584Z,97.40
2023-08-20T16:51:44.148Z,97.60
2023-08-20T16:54:14.566Z,97.80
2023-08-20T16:56:45.228Z,97.90
2023-08-20T16:59:15.582Z,98.10
2023-08-20T17:01:47.036Z,98.10
2023-08-20T17:04:17.439Z,98.40
2023-08-20T17:06:47.776Z,97.70
2023-08-20T17:09:18.372Z,97.90
2023-08-20T17:11:49.795Z,98.20
2023-08-20T17:14:20.553Z,97.90
2023-08-20T17:16:51.658Z,98.30
2023-08-20T17:19:23.717Z,98.30
2023-08-20T17:21:54.934Z,97.80
2023-08-20T17:24:25.253Z,97.20
2023-08-20T17:26:56.168Z,97.40
2023-08-20T17:29:26.565Z,97.20
2023-08-20T17:31:56.998Z,97.20
2023-08-20T17:34:27.732Z,97.80
2023-08-20T17:36:58.749Z,98.20
2023-08-20T17:39:29.359Z,98.50
2023-08-20T17:41:59.753Z,98.60
2023-08-20T17:44:30.041Z,98.80
2023-08-20T17:47:00.331Z,99.30
2023-08-20T17:49:45.569Z,99.60
2023-08-20T17:52:15.920Z,99.70
2023-08-20T17:54:46.896Z,99.70
2023-08-20T17:57:17.584Z,99.90
2023-08-20T17:59:49.466Z,99.40
2023-08-20T18:02:22.170Z,99.30
2023-08-20T18:04:54.664Z,99.20
2023-08-20T18:07:25.096Z,99.60
2023-08-20T18:09:55.675Z,99.90
2023-08-20T18:12:26.259Z,99.90
2023-08-20T18:14:57.414Z,99.90
2023-08-20T18:17:27.731Z,99.60
2023-08-20T18:19:58.414Z,99.70
2023-08-20T18:22:28.741Z,99.90
2023-08-20T18:24:59.045Z,99.90
2023-08-20T18:27:29.283Z,99.90
2023-08-20T18:29:59.690Z,99.70
2023-08-20T18:32:29.981Z,99.70
2023-08-20T18:35:00.859Z,99.40
2023-08-20T18:37:31.222Z,99.20
2023-08-20T18:40:02.074Z,99.20
2023-08-20T18:42:34.991Z,99.20
2023-08-20T18:45:06.153Z,99.90
2023-08-20T18:47:36.559Z,99.70
2023-08-20T18:50:08.489Z,99.50
2023-08-20T18:52:39.261Z,99.30
2023-08-20T18:55:10.304Z,99.30
2023-08-20T18:57:40.550Z,99.40
2023-08-20T19:00:14.878Z,99.60
2023-08-20T19:02:45.334Z,99.50
2023-08-20T19:05:15.761Z,99.60
2023-08-20T19:07:50.272Z,99.60
2023-08-20T19:10:20.815Z,99.60
2023-08-20T19:12:51.158Z,99.90
2023-08-20T19:15:21.798Z,99.70
2023-08-20T19:17:52.228Z,99.90
2023-08-20T19:20:22.666Z,99.90
2023-08-20T19:22:52.931Z,99.90
2023-08-20T19:25:23.323Z,99.80
2023-08-20T19:27:53.793Z,99.80
2023-08-20T19:30:24.402Z,99.90
2023-08-20T19:32:54.748Z,99.90
2023-08-20T19:35:36.353Z,99.70
2023-08-20T19:38:08.271Z,99.70
2023-08-20T19:40:42.401Z,99.90
2023-08-20T19:43:12.804Z,99.80
2023-08-20T19:45:43.143Z,99.80
2023-08-20T19:48:14.802Z,99.60
2023-08-20T19:50:45.307Z,99.50
2023-08-20T19:53:16.027Z,99.90
2023-08-20T19:55:46.305Z,99.90
2023-08-20T19:58:17.709Z,99.60
2023-08-20T20:00:48.023Z,99.70
2023-08-20T20:03:18.338Z,99.90
2023-08-20T20:05:48.628Z,99.90
2023-08-20T20:08:19.032Z,99.90
2023-08-20T20:10:49.830Z,99.90
2023-08-20T20:13:20.070Z,99.90
2023-08-20T20:15:50.379Z,99.90
2023-08-20T20:18:20.749Z,99.90
2023-08-20T20:20:51.053Z,99.70
2023-08-20T20:23:21.301Z,99.80
2023-08-20T20:25:52.857Z,99.90
2023-08-20T20:28:23.347Z,99.90
2023-08-20T20:30:53.859Z,99.70
2023-08-20T20:33:24.266Z,99.90
2023-08-20T20:35:58.192Z,99.90
2023-08-20T20:38:30.016Z,99.90
2023-08-20T20:41:02.246Z,99.90
2023-08-20T20:43:33.130Z,99.80
2023-08-20T20:46:03.918Z,99.80
2023-08-20T20:48:36.593Z,99.60
2023-08-20T20:51:08.560Z,99.30
2023-08-20T20:53:39.321Z,99.70
2023-08-20T20:56:10.027Z,99.60
2023-08-20T20:58:48.919Z,99.80
2023-08-20T21:01:23.272Z,99.70
2023-08-20T21:03:56.044Z,99.70
2023-08-20T21:06:28.687Z,99.80
2023-08-20T21:08:59.424Z,99.60
2023-08-20T21:11:30.164Z,99.20
2023-08-20T21:14:00.468Z,99.00
2023-08-20T21:16:30.879Z,99.40
2023-08-20T21:19:02.283Z,99.50
2023-08-20T21:21:34.443Z,99.20
2023-08-20T21:24:04.812Z,98.90
2023-08-20T21:26:35.425Z,99.10
2023-08-20T21:29:05.800Z,99.20
2023-08-20T21:31:36.536Z,99.60
2023-08-20T21:34:07.135Z,99.60
2023-08-20T21:36:37.901Z,99.60
2023-08-20T21:39:09.467Z,99.60
2023-08-20T21:41:40.961Z,99.50
2023-08-20T21:44:11.327Z,99.40
2023-08-20T21:46:41.753Z,99.40
2023-08-20T21:49:12.139Z,99.20
2023-08-20T21:51:42.545Z,99.10
2023-08-20T21:54:12.886Z,99.30
2023-08-20T21:56:43.274Z,98.60
2023-08-20T22:02:34.304Z,98.90
2023-08-20T22:05:22.700Z,98.80
2023-08-20T22:07:54.354Z,98.60
2023-08-20T22:10:24.682Z,98.20
2023-08-20T22:12:57.317Z,98.40
2023-08-20T22:15:27.739Z,98.40
2023-08-20T22:17:58.108Z,98.50
2023-08-20T22:20:28.837Z,98.40
2023-08-20T22:22:59.154Z,98.30
2023-08-20T22:25:29.475Z,98.50
2023-08-20T22:27:59.830Z,98.50
2023-08-20T22:30:31.242Z,98.20
2023-08-20T22:33:01.756Z,98.30
2023-08-20T22:35:34.455Z,98.40
2023-08-20T22:38:07.917Z,98.30
2023-08-20T22:40:40.450Z,98.00
2023-08-20T22:43:10.903Z,98.10
2023-08-20T22:45:41.585Z,96.90
2023-08-20T22:48:12.072Z,96.70
2023-08-20T22:50:42.902Z,96.90
2023-08-20T22:53:13.231Z,96.90
2023-08-20T22:55:43.980Z,97.00
2023-08-20T22:58:14.292Z,96.80
2023-08-20T23:00:44.617Z,96.70
2023-08-20T23:03:15.393Z,96.90
2023-08-20T23:05:46.201Z,97.10
2023-08-20T23:08:16.506Z,96.70
2023-08-20T23:10:46.800Z,96.90
2023-08-20T23:13:17.186Z,97.00
2023-08-20T23:15:47.481Z,96.60
2023-08-20T23:18:17.823Z,96.40
2023-08-20T23:20:53.243Z,96.20
2023-08-20T23:23:24.225Z,96.10
2023-08-20T23:25:54.506Z,96.20
2023-08-20T23:28:29.096Z,95.70
2023-08-20T23:31:01.012Z,95.90
2023-08-20T23:33:31.305Z,95.50
2023-08-20T23:36:01.667Z,96.10
2023-08-20T23:38:33.815Z,95.70
2023-08-20T23:41:05.753Z,95.90
2023-08-20T23:43:37.734Z,95.60
2023-08-20T23:46:08.424Z,95.60
2023-08-20T23:48:39.169Z,95.50
2023-08-20T23:51:09.667Z,94.90
2023-08-20T23:53:40.464Z,95.30
2023-08-20T23:56:11.254Z,94.70
2023-08-20T23:58:43.229Z,95.00
